Time;durP1;ratioP1;P1;durP2;ratioP2;P2;SDS_P1;SDS_P2;PMS_P1;PMS_P2;Temp;Humidity;BMP_temperature;BMP_pressure;BME280_temperature;BME280_humidity;BME280_pressure;Samples;Min_cycle;Max_cycle;Signal;HPM_P1;HPM_P2
2024/03/03 00:01:42;;;;;;;14.18;5.85;;;;;;;;;;5088980;28;20032;-68
2024/03/03 00:04:08;;;;;;;9.27;5.63;;;;;;;;;;5088129;28;20032;-69
2024/03/03 00:06:33;;;;;;;23.42;8.00;;;;;;;;;;5088537;28;20040;-68
2024/03/03 00:08:58;;;;;;;17.52;7.07;;;;;;;;;;5097038;28;20031;-68
2024/03/03 00:11:24;;;;;;;84.82;11.75;;;;;;;;;;5076219;28;20036;-68
2024/03/03 00:13:49;;;;;;;24.42;7.05;;;;;;;;;;5079228;28;20036;-69
2024/03/03 00:16:14;;;;;;;16.25;6.78;;;;;;;;;;5075685;28;20029;-68
2024/03/03 00:18:40;;;;;;;39.17;7.80;;;;;;;;;;5072613;28;20032;-69
2024/03/03 00:21:11;;;;;;;15.90;7.75;;;;;;;;;;5086005;28;20048;-69
2024/03/03 00:23:37;;;;;;;11.95;5.75;;;;;;;;;;5088786;28;20106;-68
2024/03/03 00:26:02;;;;;;;32.35;6.90;;;;;;;;;;5085815;28;20074;-68
2024/03/03 00:28:28;;;;;;;34.22;6.57;;;;;;;;;;5078222;28;20123;-68
2024/03/03 00:30:53;;;;;;;47.38;7.47;;;;;;;;;;5078379;28;20028;-68
2024/03/03 00:33:18;;;;;;;8.30;4.38;;;;;;;;;;5077464;28;20036;-68
2024/03/03 00:35:44;;;;;;;11.88;6.05;;;;;;;;;;5077091;28;20044;-68
2024/03/03 00:38:09;;;;;;;8.57;3.95;;;;;;;;;;5082076;28;20044;-68
2024/03/03 00:40:35;;;;;;;7.05;4.93;;;;;;;;;;5070908;28;20032;-67
2024/03/03 00:43:00;;;;;;;10.82;4.18;;;;;;;;;;5080765;28;20617;-69
2024/03/03 00:45:25;;;;;;;6.85;3.90;;;;;;;;;;5080147;28;20040;-67
2024/03/03 00:47:51;;;;;;;5.47;3.53;;;;;;;;;;5079118;28;20032;-68
2024/03/03 00:50:16;;;;;;;5.10;2.83;;;;;;;;;;5079720;28;21199;-69
2024/03/03 00:52:41;;;;;;;6.80;3.35;;;;;;;;;;5081987;28;20379;-68
2024/03/03 00:55:07;;;;;;;9.77;3.53;;;;;;;;;;5078860;28;20036;-67
2024/03/03 00:57:32;;;;;;;5.15;3.42;;;;;;;;;;5073097;28;20044;-68
2024/03/03 00:59:58;;;;;;;5.88;3.67;;;;;;;;;;5078467;28;20080;-67
2024/03/03 01:02:24;;;;;;;7.63;3.83;;;;;;;;;;5076874;28;20040;-68
2024/03/03 01:04:50;;;;;;;7.05;4.45;;;;;;;;;;5078831;28;20105;-67
2024/03/03 01:07:15;;;;;;;8.27;3.58;;;;;;;;;;5072508;28;20020;-67
2024/03/03 01:09:41;;;;;;;7.55;3.35;;;;;;;;;;5075080;28;20051;-69
2024/03/03 01:12:06;;;;;;;4.90;3.10;;;;;;;;;;5073175;28;20103;-68
2024/03/03 01:14:31;;;;;;;6.25;3.05;;;;;;;;;;5075532;28;20468;-68
2024/03/03 01:16:57;;;;;;;11.15;3.90;;;;;;;;;;5075278;28;20029;-67
2024/03/03 01:19:22;;;;;;;6.82;4.03;;;;;;;;;;5074587;28;20036;-68
2024/03/03 01:21:47;;;;;;;9.73;4.20;;;;;;;;;;5077861;28;20025;-67
2024/03/03 01:24:13;;;;;;;6.00;3.40;;;;;;;;;;5076313;28;20028;-68
2024/03/03 01:26:38;;;;;;;3.15;2.28;;;;;;;;;;5072684;28;20037;-67
2024/03/03 01:29:04;;;;;;;9.02;4.40;;;;;;;;;;5077817;28;20028;-68
2024/03/03 01:31:29;;;;;;;5.30;2.95;;;;;;;;;;5084802;28;20047;-68
2024/03/03 01:33:54;;;;;;;4.43;2.63;;;;;;;;;;5087312;28;20123;-67
2024/03/03 01:36:20;;;;;;;8.30;2.97;;;;;;;;;;5082953;28;20044;-68
2024/03/03 01:38:45;;;;;;;8.00;3.63;;;;;;;;;;5071303;28;20036;-67
2024/03/03 01:41:10;;;;;;;7.00;3.28;;;;;;;;;;5075329;28;20044;-67
2024/03/03 01:43:36;;;;;;;6.20;3.75;;;;;;;;;;5080477;28;20040;-67
2024/03/03 01:46:01;;;;;;;6.40;2.45;;;;;;;;;;5087419;28;20065;-68
2024/03/03 01:48:27;;;;;;;3.72;2.58;;;;;;;;;;5086322;28;20447;-67
2024/03/03 01:50:54;;;;;;;2.80;1.85;;;;;;;;;;5078641;28;20036;-68
2024/03/03 01:53:19;;;;;;;5.28;2.50;;;;;;;;;;5072257;28;20042;-67
2024/03/03 01:55:45;;;;;;;3.97;2.13;;;;;;;;;;5085845;28;20044;-69
2024/03/03 01:58:12;;;;;;;4.80;2.25;;;;;;;;;;5080648;28;20032;-68
2024/03/03 02:00:37;;;;;;;2.50;1.20;;;;;;;;;;5081201;28;20028;-67
2024/03/03 02:03:07;;;;;;;2.30;1.20;;;;;;;;;;5077081;28;20560;-67
2024/03/03 02:05:35;;;;;;;5.10;2.10;;;;;;;;;;5070171;28;20028;-69
2024/03/03 02:08:01;;;;;;;3.90;1.70;;;;;;;;;;5071588;28;20036;-68
2024/03/03 02:10:26;;;;;;;4.10;2.45;;;;;;;;;;5072711;28;20599;-67
2024/03/03 02:12:52;;;;;;;3.33;1.85;;;;;;;;;;5079744;28;20052;-68
2024/03/03 02:15:17;;;;;;;3.83;1.85;;;;;;;;;;5075966;28;20083;-68
2024/03/03 02:17:43;;;;;;;3.78;1.60;;;;;;;;;;5073893;28;20072;-67
2024/03/03 02:20:08;;;;;;;2.40;1.17;;;;;;;;;;5070822;28;20401;-67
2024/03/03 02:22:36;;;;;;;2.58;1.67;;;;;;;;;;5083286;28;20040;-67
2024/03/03 02:25:01;;;;;;;1.90;1.10;;;;;;;;;;5078198;28;20120;-67
2024/03/03 02:27:26;;;;;;;3.72;1.92;;;;;;;;;;5071048;28;20128;-67
2024/03/03 02:29:52;;;;;;;2.80;1.25;;;;;;;;;;5081182;28;20081;-67
2024/03/03 02:32:17;;;;;;;1.33;0.90;;;;;;;;;;5071413;28;20040;-67
2024/03/03 02:34:42;;;;;;;5.25;1.63;;;;;;;;;;5079556;28;20036;-67
2024/03/03 02:37:08;;;;;;;1.52;1.00;;;;;;;;;;5077758;28;20043;-67
2024/03/03 02:39:34;;;;;;;1.83;1.13;;;;;;;;;;5073760;28;20154;-67
2024/03/03 02:41:59;;;;;;;1.95;1.15;;;;;;;;;;5072969;28;20028;-67
2024/03/03 02:44:25;;;;;;;2.25;1.40;;;;;;;;;;5070256;28;20100;-68
2024/03/03 02:46:50;;;;;;;1.88;1.08;;;;;;;;;;5078422;28;20135;-67
2024/03/03 02:49:15;;;;;;;2.17;1.23;;;;;;;;;;5073780;28;20052;-68
2024/03/03 02:51:42;;;;;;;3.55;1.27;;;;;;;;;;5074554;28;20040;-69
2024/03/03 02:54:07;;;;;;;6.35;1.30;;;;;;;;;;5069626;28;20674;-68
2024/03/03 02:56:32;;;;;;;5.90;2.40;;;;;;;;;;5073629;28;20107;-67
2024/03/03 02:58:59;;;;;;;3.47;1.90;;;;;;;;;;5078148;28;20048;-67
2024/03/03 03:01:24;;;;;;;3.42;1.88;;;;;;;;;;5076399;28;20356;-69
2024/03/03 03:03:50;;;;;;;2.90;1.83;;;;;;;;;;5074296;28;20032;-67
2024/03/03 03:06:15;;;;;;;1.75;1.25;;;;;;;;;;5071101;28;20025;-67
2024/03/03 03:08:40;;;;;;;6.70;1.77;;;;;;;;;;5061691;28;20862;-69
2024/03/03 03:11:06;;;;;;;1.90;1.15;;;;;;;;;;5073433;28;20032;-68
2024/03/03 03:13:31;;;;;;;1.50;1.10;;;;;;;;;;5070719;28;20563;-67
2024/03/03 03:15:56;;;;;;;2.03;1.02;;;;;;;;;;5073659;28;20123;-67
2024/03/03 03:18:22;;;;;;;3.72;1.27;;;;;;;;;;5071006;28;20029;-68
2024/03/03 03:20:47;;;;;;;2.00;1.20;;;;;;;;;;5074182;28;20468;-68
2024/03/03 03:23:12;;;;;;;3.42;0.93;;;;;;;;;;5071450;28;20075;-68
2024/03/03 03:25:38;;;;;;;3.53;2.00;;;;;;;;;;5076714;28;20040;-68
2024/03/03 03:28:03;;;;;;;2.92;1.20;;;;;;;;;;5078720;28;20025;-68
2024/03/03 03:30:29;;;;;;;2.58;1.50;;;;;;;;;;5084581;28;20119;-68
2024/03/03 03:32:54;;;;;;;4.43;1.20;;;;;;;;;;5075691;28;20041;-68
2024/03/03 03:35:21;;;;;;;5.60;1.17;;;;;;;;;;5073168;28;20060;-69
2024/03/03 03:37:47;;;;;;;2.25;1.33;;;;;;;;;;5077945;28;20048;-67
2024/03/03 03:40:13;;;;;;;5.43;1.42;;;;;;;;;;5075775;28;20024;-68
2024/03/03 03:42:39;;;;;;;2.70;1.42;;;;;;;;;;5073692;28;20052;-67
2024/03/03 03:45:05;;;;;;;1.40;0.82;;;;;;;;;;5074025;28;20079;-68
2024/03/03 03:47:31;;;;;;;1.48;0.63;;;;;;;;;;5075292;28;20568;-67
2024/03/03 03:49:56;;;;;;;1.05;0.77;;;;;;;;;;5087886;28;20440;-68
2024/03/03 03:52:22;;;;;;;0.75;0.60;;;;;;;;;;5082971;28;20040;-67
2024/03/03 03:54:47;;;;;;;1.40;0.88;;;;;;;;;;5071506;28;20131;-67
2024/03/03 03:57:12;;;;;;;1.73;1.05;;;;;;;;;;5075665;28;20062;-67
2024/03/03 03:59:38;;;;;;;3.28;1.17;;;;;;;;;;5084248;28;20131;-67
2024/03/03 04:02:05;;;;;;;2.75;1.27;;;;;;;;;;5078042;28;20050;-68
2024/03/03 04:04:34;;;;;;;2.15;1.33;;;;;;;;;;5077853;28;20033;-67
2024/03/03 04:07:01;;;;;;;1.42;0.85;;;;;;;;;;5077396;28;20047;-68
2024/03/03 04:09:27;;;;;;;3.08;1.20;;;;;;;;;;5058791;28;20388;-68
2024/03/03 04:11:53;;;;;;;1.17;0.88;;;;;;;;;;5088093;28;20020;-68
2024/03/03 04:14:18;;;;;;;2.92;0.88;;;;;;;;;;5090352;28;20040;-67
2024/03/03 04:16:44;;;;;;;2.15;1.35;;;;;;;;;;5083073;28;20097;-67
2024/03/03 04:19:09;;;;;;;1.73;1.25;;;;;;;;;;5081284;28;20036;-67
2024/03/03 04:21:42;;;;;;;2.90;1.20;;;;;;;;;;5078771;28;20124;-68
2024/03/03 04:24:08;;;;;;;1.80;1.05;;;;;;;;;;5077800;28;20037;-68
2024/03/03 04:26:33;;;;;;;2.05;1.00;;;;;;;;;;5083042;28;20028;-67
2024/03/03 04:28:59;;;;;;;2.38;1.38;;;;;;;;;;5086306;28;20035;-68
2024/03/03 04:31:24;;;;;;;2.17;1.33;;;;;;;;;;5072603;28;20028;-68
2024/03/03 04:33:49;;;;;;;3.22;1.38;;;;;;;;;;5073271;28;20111;-68
2024/03/03 04:36:15;;;;;;;2.63;1.63;;;;;;;;;;5077740;28;20407;-67
2024/03/03 04:38:40;;;;;;;2.08;1.52;;;;;;;;;;5084914;28;20568;-68
2024/03/03 04:41:19;;;;;;;1.25;0.90;;;;;;;;;;5072975;28;20033;-68
2024/03/03 04:43:48;;;;;;;10.70;1.00;;;;;;;;;;5078880;28;20109;-68
2024/03/03 04:46:13;;;;;;;1.35;1.10;;;;;;;;;;5079219;28;20028;-68
2024/03/03 04:48:39;;;;;;;1.50;1.00;;;;;;;;;;5082700;28;20403;-68
2024/03/03 04:51:06;;;;;;;1.30;0.88;;;;;;;;;;5075240;28;20094;-68
2024/03/03 04:53:33;;;;;;;2.50;1.02;;;;;;;;;;5073295;28;20036;-68
2024/03/03 04:55:58;;;;;;;2.38;1.30;;;;;;;;;;5079496;28;20640;-67
2024/03/03 04:58:23;;;;;;;0.93;0.80;;;;;;;;;;5080439;28;20028;-69
2024/03/03 05:00:49;;;;;;;2.20;1.33;;;;;;;;;;5073422;28;20037;-68
2024/03/03 05:03:14;;;;;;;1.08;0.82;;;;;;;;;;5080023;28;20467;-66
2024/03/03 05:05:39;;;;;;;1.48;0.88;;;;;;;;;;5076414;28;20446;-68
2024/03/03 05:08:05;;;;;;;3.08;1.45;;;;;;;;;;5077921;28;20050;-67
2024/03/03 05:10:30;;;;;;;1.58;1.02;;;;;;;;;;5081469;28;20044;-67
2024/03/03 05:12:55;;;;;;;2.20;1.48;;;;;;;;;;5086214;28;20047;-68
2024/03/03 05:15:21;;;;;;;1.92;0.95;;;;;;;;;;5078573;28;20032;-67
2024/03/03 05:17:46;;;;;;;3.75;0.90;;;;;;;;;;5081445;28;20036;-67
2024/03/03 05:20:11;;;;;;;1.50;1.15;;;;;;;;;;5072294;28;20050;-67
2024/03/03 05:22:37;;;;;;;2.08;1.48;;;;;;;;;;5085015;28;20119;-68
2024/03/03 05:25:06;;;;;;;0.70;0.63;;;;;;;;;;5068416;28;20071;-67
2024/03/03 05:27:32;;;;;;;1.05;0.80;;;;;;;;;;5086791;28;20108;-68
2024/03/03 05:29:58;;;;;;;3.10;1.15;;;;;;;;;;5081203;28;20024;-68
2024/03/03 05:32:24;;;;;;;2.53;1.17;;;;;;;;;;5068236;28;20028;-68
2024/03/03 05:34:49;;;;;;;1.65;0.77;;;;;;;;;;5077768;28;20555;-67
2024/03/03 05:37:15;;;;;;;1.33;0.75;;;;;;;;;;5074515;28;20605;-67
2024/03/03 05:39:40;;;;;;;1.02;0.80;;;;;;;;;;5085900;28;20036;-68
2024/03/03 05:42:07;;;;;;;1.60;1.08;;;;;;;;;;5089805;28;20402;-68
2024/03/03 05:44:33;;;;;;;3.42;0.93;;;;;;;;;;5076801;28;20063;-69
2024/03/03 05:46:58;;;;;;;3.50;1.13;;;;;;;;;;5073316;28;20082;-66
2024/03/03 05:49:23;;;;;;;6.47;1.25;;;;;;;;;;5076761;28;20059;-69
2024/03/03 05:51:49;;;;;;;1.70;1.00;;;;;;;;;;5071246;28;20036;-68
2024/03/03 05:54:14;;;;;;;0.60;0.47;;;;;;;;;;5074005;28;20028;-67
2024/03/03 05:56:40;;;;;;;1.77;1.08;;;;;;;;;;5085095;28;20032;-68
2024/03/03 05:59:05;;;;;;;2.45;1.35;;;;;;;;;;5081884;28;20402;-67
2024/03/03 06:01:31;;;;;;;1.35;0.82;;;;;;;;;;5074837;28;20115;-69
2024/03/03 06:03:56;;;;;;;1.02;0.85;;;;;;;;;;5079363;28;20391;-68
2024/03/03 06:06:23;;;;;;;1.85;0.88;;;;;;;;;;5075451;28;20032;-68
2024/03/03 06:08:50;;;;;;;1.63;1.00;;;;;;;;;;5079577;28;20040;-67
2024/03/03 06:11:16;;;;;;;1.98;1.00;;;;;;;;;;5081192;28;20034;-67
2024/03/03 06:13:41;;;;;;;1.38;0.68;;;;;;;;;;5082002;28;20020;-67
2024/03/03 06:16:07;;;;;;;1.90;1.05;;;;;;;;;;5074391;28;20039;-68
2024/03/03 06:18:32;;;;;;;1.70;1.05;;;;;;;;;;5070717;28;20120;-68
2024/03/03 06:20:58;;;;;;;0.90;0.60;;;;;;;;;;5073913;28;20357;-68
2024/03/03 06:23:23;;;;;;;8.00;1.48;;;;;;;;;;5070738;28;20549;-67
2024/03/03 06:25:50;;;;;;;0.85;0.70;;;;;;;;;;5082439;28;20044;-68
2024/03/03 06:28:15;;;;;;;1.60;1.02;;;;;;;;;;5075708;28;20067;-67
2024/03/03 06:30:41;;;;;;;1.40;0.85;;;;;;;;;;5075636;28;20504;-68
2024/03/03 06:33:06;;;;;;;0.73;0.60;;;;;;;;;;5077388;28;20032;-68
2024/03/03 06:35:31;;;;;;;0.73;0.70;;;;;;;;;;5079026;28;20387;-69
2024/03/03 06:37:57;;;;;;;1.80;1.02;;;;;;;;;;5078886;28;20032;-68
2024/03/03 06:40:22;;;;;;;1.52;1.15;;;;;;;;;;5077823;28;20138;-67
2024/03/03 06:42:47;;;;;;;2.88;1.38;;;;;;;;;;5079040;28;20042;-68
2024/03/03 06:45:13;;;;;;;1.08;0.77;;;;;;;;;;5082035;28;20036;-68
2024/03/03 06:47:38;;;;;;;1.67;0.70;;;;;;;;;;5090146;28;20126;-67
2024/03/03 06:50:04;;;;;;;1.27;0.65;;;;;;;;;;5073696;28;20037;-69
2024/03/03 06:52:31;;;;;;;1.60;0.80;;;;;;;;;;5077004;28;20040;-68
2024/03/03 06:54:59;;;;;;;2.85;1.17;;;;;;;;;;5072110;28;20499;-68
2024/03/03 06:57:25;;;;;;;1.35;0.95;;;;;;;;;;5074002;28;20032;-67
2024/03/03 06:59:50;;;;;;;0.50;0.50;;;;;;;;;;5069922;28;20557;-68
2024/03/03 07:02:17;;;;;;;1.45;1.00;;;;;;;;;;5071591;28;20039;-68
2024/03/03 07:04:42;;;;;;;1.58;0.95;;;;;;;;;;5072640;28;20031;-68
2024/03/03 07:07:08;;;;;;;0.82;0.57;;;;;;;;;;5079015;28;20044;-70
2024/03/03 07:09:35;;;;;;;0.93;0.65;;;;;;;;;;5074772;28;20041;-69
2024/03/03 07:12:01;;;;;;;3.90;1.15;;;;;;;;;;5082772;28;20379;-68
2024/03/03 07:14:27;;;;;;;1.90;1.17;;;;;;;;;;5075062;28;20036;-68
2024/03/03 07:16:53;;;;;;;1.65;1.10;;;;;;;;;;5069740;28;20044;-69
2024/03/03 07:19:18;;;;;;;0.70;0.60;;;;;;;;;;5074342;28;20119;-69
2024/03/03 07:21:44;;;;;;;1.35;0.82;;;;;;;;;;5076627;28;20120;-68
2024/03/03 07:24:09;;;;;;;1.30;1.00;;;;;;;;;;5075793;28;20052;-69
2024/03/03 07:26:36;;;;;;;1.38;0.70;;;;;;;;;;5079696;28;20404;-69
2024/03/03 07:29:03;;;;;;;1.90;1.15;;;;;;;;;;5087697;28;20032;-69
2024/03/03 07:31:29;;;;;;;1.70;1.60;;;;;;;;;;5081447;28;20040;-70
2024/03/03 07:33:54;;;;;;;1.48;1.00;;;;;;;;;;5082430;28;20039;-66
2024/03/03 07:36:20;;;;;;;8.70;1.50;;;;;;;;;;5083451;28;20031;-67
2024/03/03 07:38:45;;;;;;;4.57;2.30;;;;;;;;;;5075243;28;20043;-67
2024/03/03 07:41:10;;;;;;;61.55;4.75;;;;;;;;;;5074576;28;20040;-67
2024/03/03 07:43:36;;;;;;;18.23;2.67;;;;;;;;;;5080271;28;20035;-68
2024/03/03 07:46:02;;;;;;;113.63;6.13;;;;;;;;;;5081327;28;20033;-67
2024/03/03 07:48:28;;;;;;;8.35;1.48;;;;;;;;;;5073523;28;20078;-67
2024/03/03 07:50:54;;;;;;;353.98;17.45;;;;;;;;;;5087758;28;20059;-68
2024/03/03 07:53:20;;;;;;;239.82;11.40;;;;;;;;;;5073659;28;20572;-68
2024/03/03 07:55:45;;;;;;;430.90;18.30;;;;;;;;;;5073841;28;20024;-67
2024/03/03 07:58:11;;;;;;;710.03;33.58;;;;;;;;;;5077737;28;20048;-68
2024/03/03 08:00:36;;;;;;;70.60;4.05;;;;;;;;;;5078839;28;20067;-70
2024/03/03 08:03:04;;;;;;;432.02;18.45;;;;;;;;;;5083237;28;20379;-70
2024/03/03 08:05:30;;;;;;;424.52;18.65;;;;;;;;;;5080097;28;20123;-69
2024/03/03 08:07:55;;;;;;;525.45;23.27;;;;;;;;;;5072767;28;20490;-69
2024/03/03 08:10:20;;;;;;;1195.78;48.65;;;;;;;;;;5065811;28;20482;-70
2024/03/03 08:12:46;;;;;;;307.42;12.88;;;;;;;;;;5071550;28;20032;-71
2024/03/03 08:15:11;;;;;;;412.42;17.42;;;;;;;;;;5080096;28;20037;-70
2024/03/03 08:17:37;;;;;;;499.50;19.35;;;;;;;;;;5070592;28;20033;-71
2024/03/03 08:20:02;;;;;;;98.95;4.20;;;;;;;;;;5078752;28;20476;-70
2024/03/03 08:22:28;;;;;;;91.25;3.85;;;;;;;;;;5076479;28;20097;-67
2024/03/03 08:24:54;;;;;;;158.13;6.05;;;;;;;;;;5074399;28;20471;-67
2024/03/03 08:27:19;;;;;;;5.95;1.60;;;;;;;;;;5073898;28;20025;-67
2024/03/03 08:29:45;;;;;;;62.30;3.25;;;;;;;;;;5072903;28;20037;-67
2024/03/03 08:32:10;;;;;;;4.05;1.50;;;;;;;;;;5072828;28;20030;-68
2024/03/03 08:34:36;;;;;;;6.90;1.48;;;;;;;;;;5085604;28;20047;-67
2024/03/03 08:37:01;;;;;;;3.65;1.50;;;;;;;;;;5083299;28;20046;-68
2024/03/03 08:39:26;;;;;;;5.53;1.67;;;;;;;;;;5089381;28;20032;-67
2024/03/03 08:41:52;;;;;;;4.43;1.55;;;;;;;;;;5083872;28;20119;-69
2024/03/03 08:44:17;;;;;;;4.32;1.55;;;;;;;;;;5086435;28;20119;-68
2024/03/03 08:46:42;;;;;;;4.10;1.40;;;;;;;;;;5085589;28;20063;-68
2024/03/03 08:49:08;;;;;;;4.20;1.70;;;;;;;;;;5084163;28;20037;-68
2024/03/03 08:51:38;;;;;;;4.07;1.40;;;;;;;;;;5075024;28;20051;-67
2024/03/03 08:54:04;;;;;;;4.03;1.80;;;;;;;;;;5085582;28;20051;-67
2024/03/03 08:56:30;;;;;;;2.80;1.30;;;;;;;;;;5080215;28;20423;-69
2024/03/03 08:58:55;;;;;;;4.50;1.60;;;;;;;;;;5088209;28;20048;-67
2024/03/03 09:01:21;;;;;;;7.90;1.70;;;;;;;;;;5085531;28;20043;-69
2024/03/03 09:03:46;;;;;;;5.47;1.40;;;;;;;;;;5077467;28;20044;-68
2024/03/03 09:06:11;;;;;;;2.85;1.25;;;;;;;;;;5073513;28;20043;-68
2024/03/03 09:08:37;;;;;;;2.70;1.38;;;;;;;;;;5088990;28;20032;-68
2024/03/03 09:11:06;;;;;;;2.90;1.42;;;;;;;;;;5088094;28;20074;-67
2024/03/03 09:13:35;;;;;;;3.67;1.40;;;;;;;;;;5067760;28;20071;-67
2024/03/03 09:16:01;;;;;;;3.25;1.42;;;;;;;;;;5079952;28;20348;-67
2024/03/03 09:18:26;;;;;;;4.22;1.60;;;;;;;;;;5084917;28;20491;-68
2024/03/03 09:20:52;;;;;;;3.45;1.77;;;;;;;;;;5085282;28;20047;-68
2024/03/03 09:23:18;;;;;;;3.03;1.38;;;;;;;;;;5076369;28;20116;-68
2024/03/03 09:25:43;;;;;;;2.70;1.40;;;;;;;;;;5075706;28;20131;-68
2024/03/03 09:28:09;;;;;;;2.63;1.25;;;;;;;;;;5070154;28;20704;-68
2024/03/03 09:30:34;;;;;;;3.28;1.25;;;;;;;;;;5079185;28;20043;-67
2024/03/03 09:32:59;;;;;;;4.97;1.92;;;;;;;;;;5071049;28;20040;-68
2024/03/03 09:35:25;;;;;;;4.20;1.55;;;;;;;;;;5079221;28;20032;-67
2024/03/03 09:37:50;;;;;;;4.50;1.50;;;;;;;;;;5088145;28;20032;-68
2024/03/03 09:40:17;;;;;;;2.35;1.30;;;;;;;;;;5079279;28;20059;-67
2024/03/03 09:42:45;;;;;;;4.70;1.50;;;;;;;;;;5076036;28;20041;-68
2024/03/03 09:45:12;;;;;;;5.95;2.83;;;;;;;;;;5076171;28;20161;-68
2024/03/03 09:47:39;;;;;;;5.03;3.15;;;;;;;;;;5073101;28;20507;-68
2024/03/03 09:50:14;;;;;;;5.18;3.10;;;;;;;;;;5077037;28;20059;-68
2024/03/03 09:52:41;;;;;;;3.20;2.10;;;;;;;;;;5077238;28;20091;-68
2024/03/03 09:55:09;;;;;;;5.20;2.78;;;;;;;;;;5059988;28;20099;-68
2024/03/03 09:57:36;;;;;;;8.45;3.88;;;;;;;;;;5083799;28;20110;-67
2024/03/03 10:00:02;;;;;;;5.68;3.92;;;;;;;;;;5086315;28;20054;-69
2024/03/03 10:02:27;;;;;;;4.55;3.22;;;;;;;;;;5081288;28;20072;-67
2024/03/03 10:04:54;;;;;;;5.57;3.25;;;;;;;;;;5086185;28;20059;-68
2024/03/03 10:07:23;;;;;;;5.65;3.00;;;;;;;;;;5081104;28;20403;-71
2024/03/03 10:10:00;;;;;;;4.22;3.08;;;;;;;;;;5086584;28;20043;-68
2024/03/03 10:12:26;;;;;;;5.93;3.30;;;;;;;;;;5080320;28;20206;-67
2024/03/03 10:14:51;;;;;;;7.78;3.75;;;;;;;;;;5075183;28;20648;-69
2024/03/03 10:17:17;;;;;;;5.68;2.97;;;;;;;;;;5083083;28;20040;-68
2024/03/03 10:19:43;;;;;;;7.88;3.30;;;;;;;;;;5081657;28;20027;-67
2024/03/03 10:22:17;;;;;;;5.10;3.40;;;;;;;;;;5082868;28;20434;-68
2024/03/03 10:24:42;;;;;;;5.40;2.80;;;;;;;;;;5077940;28;20024;-68
2024/03/03 10:27:14;;;;;;;6.15;3.08;;;;;;;;;;5087706;28;20127;-67
2024/03/03 10:29:42;;;;;;;5.20;3.05;;;;;;;;;;5085134;28;20028;-67
2024/03/03 10:32:09;;;;;;;5.43;3.17;;;;;;;;;;5083453;28;20036;-68
2024/03/03 10:34:35;;;;;;;4.30;2.70;;;;;;;;;;5076803;28;20082;-67
2024/03/03 10:37:02;;;;;;;4.07;2.58;;;;;;;;;;5078469;28;20394;-67
2024/03/03 10:39:28;;;;;;;7.35;3.45;;;;;;;;;;5081174;28;20032;-68
2024/03/03 10:41:54;;;;;;;5.45;2.90;;;;;;;;;;5081074;28;20082;-67
2024/03/03 10:44:20;;;;;;;5.15;3.20;;;;;;;;;;5082984;28;20259;-67
2024/03/03 10:46:46;;;;;;;8.02;3.60;;;;;;;;;;5085385;28;20459;-67
2024/03/03 10:49:13;;;;;;;9.77;3.22;;;;;;;;;;5080061;28;20036;-69
2024/03/03 10:51:38;;;;;;;6.18;3.42;;;;;;;;;;5077228;28;20081;-69
2024/03/03 10:54:04;;;;;;;5.55;2.75;;;;;;;;;;5080433;28;20429;-69
2024/03/03 10:56:30;;;;;;;6.38;3.50;;;;;;;;;;5082406;28;20048;-69
2024/03/03 10:58:56;;;;;;;4.88;2.72;;;;;;;;;;5078870;28;20040;-69
2024/03/03 11:01:21;;;;;;;9.80;3.58;;;;;;;;;;5079448;28;20028;-69
2024/03/03 11:03:48;;;;;;;6.35;3.33;;;;;;;;;;5080699;28;20047;-69
2024/03/03 11:06:14;;;;;;;6.80;3.83;;;;;;;;;;5072635;28;20028;-69
2024/03/03 11:08:40;;;;;;;9.55;3.47;;;;;;;;;;5083268;28;20039;-69
2024/03/03 11:11:09;;;;;;;5.13;3.05;;;;;;;;;;5081495;28;20097;-70
2024/03/03 11:14:04;;;;;;;5.05;3.20;;;;;;;;;;5066831;28;20034;-69
2024/03/03 11:16:30;;;;;;;11.02;3.78;;;;;;;;;;5075151;28;20044;-69
2024/03/03 11:19:10;;;;;;;6.47;3.97;;;;;;;;;;5073346;28;20033;-69
2024/03/03 11:21:37;;;;;;;8.32;3.33;;;;;;;;;;5072761;28;20644;-68
2024/03/03 11:24:07;;;;;;;4.05;2.42;;;;;;;;;;5076177;28;20078;-68
2024/03/03 11:26:44;;;;;;;8.95;3.42;;;;;;;;;;5078164;28;20135;-68
2024/03/03 11:29:11;;;;;;;5.18;3.13;;;;;;;;;;5075465;28;20047;-69
2024/03/03 11:31:37;;;;;;;7.35;4.00;;;;;;;;;;5077254;28;20039;-69
2024/03/03 11:34:03;;;;;;;7.72;3.97;;;;;;;;;;5079447;28;20149;-68
2024/03/03 11:36:29;;;;;;;6.70;4.03;;;;;;;;;;5080113;28;20476;-69
2024/03/03 11:38:57;;;;;;;6.05;3.00;;;;;;;;;;5082250;28;20061;-68
2024/03/03 11:41:23;;;;;;;8.70;4.05;;;;;;;;;;5086807;28;20040;-68
2024/03/03 11:43:50;;;;;;;4.97;3.53;;;;;;;;;;5087376;28;20086;-67
2024/03/03 11:46:50;;;;;;;5.50;3.80;;;;;;;;;;5081470;28;20036;-69
2024/03/03 11:49:23;;;;;;;7.32;4.38;;;;;;;;;;5067863;28;20422;-67
2024/03/03 11:51:49;;;;;;;7.85;3.60;;;;;;;;;;5083039;28;20034;-69
2024/03/03 11:54:29;;;;;;;8.02;3.80;;;;;;;;;;5079798;28;20115;-68
2024/03/03 11:56:57;;;;;;;3.65;2.47;;;;;;;;;;5070907;28;20028;-68
2024/03/03 11:59:30;;;;;;;4.13;2.60;;;;;;;;;;5076359;28;20408;-68
2024/03/03 12:01:55;;;;;;;7.40;4.00;;;;;;;;;;5074930;28;20108;-68
2024/03/03 12:04:21;;;;;;;8.68;3.33;;;;;;;;;;5073753;28;20120;-69
2024/03/03 12:06:47;;;;;;;4.88;3.58;;;;;;;;;;5084456;28;20540;-68
2024/03/03 12:09:12;;;;;;;10.13;3.88;;;;;;;;;;5085090;28;20450;-69
2024/03/03 12:11:38;;;;;;;9.07;3.20;;;;;;;;;;5074358;28;20059;-67
2024/03/03 12:14:03;;;;;;;6.20;2.90;;;;;;;;;;5080047;28;20051;-68
2024/03/03 12:16:32;;;;;;;6.20;3.20;;;;;;;;;;5074407;28;20456;-69
2024/03/03 12:18:57;;;;;;;7.65;2.85;;;;;;;;;;5072243;28;20032;-68
2024/03/03 12:21:23;;;;;;;9.80;3.33;;;;;;;;;;5076026;28;20040;-69
2024/03/03 12:23:49;;;;;;;6.00;3.20;;;;;;;;;;5077293;28;20036;-68
2024/03/03 12:26:14;;;;;;;11.63;3.60;;;;;;;;;;5084965;28;20035;-68
2024/03/03 12:28:40;;;;;;;5.07;1.35;;;;;;;;;;5070867;28;20119;-68
2024/03/03 12:31:05;;;;;;;1.90;1.10;;;;;;;;;;5082147;28;20028;-69
2024/03/03 12:33:30;;;;;;;3.38;1.80;;;;;;;;;;5087865;28;20493;-68
2024/03/03 12:35:56;;;;;;;4.00;1.85;;;;;;;;;;5075518;28;20523;-69
2024/03/03 12:38:21;;;;;;;3.67;1.88;;;;;;;;;;5081500;28;20517;-69
2024/03/03 12:40:47;;;;;;;7.50;2.90;;;;;;;;;;5079021;28;20059;-69
2024/03/03 12:43:15;;;;;;;4.72;2.33;;;;;;;;;;5085377;28;20040;-68
2024/03/03 12:45:47;;;;;;;4.35;2.22;;;;;;;;;;5082050;28;20037;-68
2024/03/03 12:48:12;;;;;;;7.30;2.90;;;;;;;;;;5082909;28;20040;-69
2024/03/03 12:50:37;;;;;;;4.22;2.25;;;;;;;;;;5081554;28;20040;-69
2024/03/03 12:53:04;;;;;;;4.63;1.75;;;;;;;;;;5088498;28;20054;-69
2024/03/03 12:55:30;;;;;;;8.07;2.30;;;;;;;;;;5077399;28;20098;-68
2024/03/03 12:57:55;;;;;;;5.15;2.97;;;;;;;;;;5085825;28;20041;-69
2024/03/03 13:00:21;;;;;;;6.03;2.17;;;;;;;;;;5073612;28;20062;-69
2024/03/03 13:02:48;;;;;;;4.88;1.77;;;;;;;;;;5073274;28;20395;-68
2024/03/03 13:05:16;;;;;;;3.03;1.30;;;;;;;;;;5073924;28;20139;-69
2024/03/03 13:07:51;;;;;;;4.25;1.83;;;;;;;;;;5070279;28;20608;-68
2024/03/03 13:10:20;;;;;;;2.10;1.23;;;;;;;;;;5078754;28;20036;-68
2024/03/03 13:12:48;;;;;;;4.53;1.90;;;;;;;;;;5073127;28;20043;-69
2024/03/03 13:15:16;;;;;;;3.97;1.65;;;;;;;;;;5070707;28;20040;-68
2024/03/03 13:17:42;;;;;;;6.80;1.95;;;;;;;;;;5070092;28;20029;-68
2024/03/03 13:20:12;;;;;;;4.88;1.73;;;;;;;;;;5063430;28;20040;-69
2024/03/03 13:22:37;;;;;;;6.13;1.92;;;;;;;;;;5071092;28;20044;-68
2024/03/03 13:25:04;;;;;;;6.50;1.80;;;;;;;;;;5071820;28;20032;-68
2024/03/03 13:27:30;;;;;;;4.95;1.88;;;;;;;;;;5073291;28;20040;-68
2024/03/03 13:29:55;;;;;;;5.28;1.90;;;;;;;;;;5075595;28;20506;-68
2024/03/03 13:32:21;;;;;;;5.88;1.85;;;;;;;;;;5071597;28;20062;-68
2024/03/03 13:34:47;;;;;;;3.17;1.63;;;;;;;;;;5070717;28;20125;-70
2024/03/03 13:37:13;;;;;;;2.50;1.17;;;;;;;;;;5069786;28;20033;-69
2024/03/03 13:39:39;;;;;;;4.55;1.40;;;;;;;;;;5069942;28;20047;-68
2024/03/03 13:42:09;;;;;;;3.53;1.38;;;;;;;;;;5073107;28;20456;-68
2024/03/03 13:44:35;;;;;;;2.03;1.15;;;;;;;;;;5079584;28;20089;-69
2024/03/03 13:47:00;;;;;;;3.13;1.13;;;;;;;;;;5072866;28;20035;-69
2024/03/03 13:49:26;;;;;;;1.63;0.90;;;;;;;;;;5075064;28;20066;-68
2024/03/03 13:51:52;;;;;;;2.90;1.00;;;;;;;;;;5074893;28;20610;-69
2024/03/03 13:54:17;;;;;;;6.45;1.75;;;;;;;;;;5063502;28;20029;-69
2024/03/03 13:56:42;;;;;;;6.03;1.45;;;;;;;;;;5079173;28;20162;-68
2024/03/03 13:59:11;;;;;;;5.55;1.80;;;;;;;;;;5082909;28;20108;-69
2024/03/03 14:01:36;;;;;;;5.07;1.95;;;;;;;;;;5074854;28;20051;-69
2024/03/03 14:04:07;;;;;;;4.93;2.05;;;;;;;;;;5077882;28;20032;-69
2024/03/03 14:06:34;;;;;;;4.95;2.15;;;;;;;;;;5074907;28;20044;-68
2024/03/03 14:09:00;;;;;;;4.47;1.75;;;;;;;;;;5075391;28;20480;-69
2024/03/03 14:11:25;;;;;;;3.55;1.33;;;;;;;;;;5071412;28;20034;-69
2024/03/03 14:13:50;;;;;;;4.65;1.60;;;;;;;;;;5071138;28;20166;-68
2024/03/03 14:16:16;;;;;;;5.28;1.45;;;;;;;;;;5071019;28;20036;-68
2024/03/03 14:18:41;;;;;;;2.35;1.17;;;;;;;;;;5076379;28;20032;-68
2024/03/03 14:21:06;;;;;;;2.60;1.10;;;;;;;;;;5075158;28;20125;-67
2024/03/03 14:23:32;;;;;;;5.78;1.90;;;;;;;;;;5069552;28;20070;-68
2024/03/03 14:25:57;;;;;;;2.55;1.27;;;;;;;;;;5070506;28;20028;-68
2024/03/03 14:28:23;;;;;;;1.98;0.80;;;;;;;;;;5069045;28;20110;-69
2024/03/03 14:30:48;;;;;;;3.67;1.30;;;;;;;;;;5069292;28;20037;-69
2024/03/03 14:33:13;;;;;;;3.38;1.40;;;;;;;;;;5071708;28;20032;-68
2024/03/03 14:35:39;;;;;;;3.10;1.35;;;;;;;;;;5081404;28;20048;-68